Time;durP1;ratioP1;P1;durP2;ratioP2;P2;SDS_P1;SDS_P2;PMS_P1;PMS_P2;Temp;Humidity;BMP_temperature;BMP_pressure;BME280_temperature;BME280_humidity;BME280_pressure;Samples;Min_cycle;Max_cycle;Signal;HPM_P1;HPM_P2
2023/04/20 00:03:44;;;;;;;;;;;;;;;8.67;70.55;100835.89;209182;1294;599497;-72
2023/04/20 00:08:37;;;;;;;;;;;;;;;8.66;70.67;100838.96;214041;1268;59260;-71
2023/04/20 00:13:29;;;;;;;;;;;;;;;8.69;70.60;100842.16;214050;1269;59331;-71
2023/04/20 00:18:22;;;;;;;;;;;;;;;8.71;70.69;100836.33;214099;1265;173327;-71
2023/04/20 00:23:15;;;;;;;;;;;;;;;8.72;70.80;100828.41;214331;1265;59342;-71
2023/04/20 00:28:08;;;;;;;;;;;;;;;8.71;70.65;100829.42;214360;1266;59222;-71
2023/04/20 00:33:01;;;;;;;;;;;;;;;8.68;70.87;100831.42;214331;1263;59546;-71
2023/04/20 00:37:54;;;;;;;;;;;;;;;8.65;70.73;100833.58;214276;1266;59389;-72
2023/04/20 00:42:50;;;;;;;;;;;;;;;8.60;70.95;100834.14;214277;1265;59464;-71
2023/04/20 00:47:42;;;;;;;;;;;;;;;8.56;71.03;100837.66;214263;1265;59342;-71
2023/04/20 00:52:35;;;;;;;;;;;;;;;8.56;70.87;100840.09;214127;1266;60088;-71
2023/04/20 00:57:28;;;;;;;;;;;;;;;8.58;71.04;100842.38;215853;1254;59756;-71
2023/04/20 01:02:21;;;;;;;;;;;;;;;8.62;71.13;100843.52;215631;1253;59954;-71
2023/04/20 01:07:14;;;;;;;;;;;;;;;8.66;71.28;100837.57;215824;1253;59734;-71
2023/04/20 01:12:07;;;;;;;;;;;;;;;8.69;71.04;100836.11;215806;1257;60122;-71
2023/04/20 01:17:03;;;;;;;;;;;;;;;8.72;71.09;100832.57;215708;1256;71346;-71
2023/04/20 01:21:56;;;;;;;;;;;;;;;8.76;70.88;100833.00;215888;1254;60094;-71
2023/04/20 01:26:48;;;;;;;;;;;;;;;8.79;71.07;100834.11;215903;1253;59730;-71
2023/04/20 01:31:41;;;;;;;;;;;;;;;8.81;70.95;100832.09;215964;1253;59749;-71
2023/04/20 01:36:34;;;;;;;;;;;;;;;8.84;70.99;100829.56;215917;1257;59741;-71
2023/04/20 01:41:27;;;;;;;;;;;;;;;8.86;70.92;100826.70;215905;1258;59601;-71
2023/04/20 01:46:21;;;;;;;;;;;;;;;8.87;70.93;100822.38;215903;1258;59994;-71
2023/04/20 01:51:14;;;;;;;;;;;;;;;8.88;71.00;100822.08;215735;1253;59642;-71
2023/04/20 01:56:07;;;;;;;;;;;;;;;8.89;71.05;100825.55;215800;1254;59826;-71
2023/04/20 02:01:02;;;;;;;;;;;;;;;8.90;71.00;100822.65;215652;1253;59721;-71
2023/04/20 02:05:55;;;;;;;;;;;;;;;8.91;70.82;100828.55;215455;1257;72867;-71
2023/04/20 02:10:51;;;;;;;;;;;;;;;8.91;71.05;100830.11;215787;1254;59805;-71
2023/04/20 02:15:44;;;;;;;;;;;;;;;8.90;71.07;100826.61;215775;1256;59656;-70
2023/04/20 02:20:37;;;;;;;;;;;;;;;8.89;71.08;100824.52;216071;1256;59634;-72
2023/04/20 02:25:30;;;;;;;;;;;;;;;8.89;71.35;100824.50;216038;1257;72132;-72
2023/04/20 02:30:23;;;;;;;;;;;;;;;8.87;71.20;100820.98;215854;1255;59664;-72
2023/04/20 02:35:16;;;;;;;;;;;;;;;8.85;71.33;100822.69;215817;1257;59637;-72
2023/04/20 02:40:09;;;;;;;;;;;;;;;8.84;71.59;100825.92;215956;1255;59716;-72
2023/04/20 02:45:02;;;;;;;;;;;;;;;8.83;71.39;100830.75;215827;1254;59777;-72
2023/04/20 02:49:55;;;;;;;;;;;;;;;8.83;71.63;100835.25;215910;1257;59958;-73
2023/04/20 02:54:48;;;;;;;;;;;;;;;8.84;71.33;100834.08;215979;1256;70860;-72
2023/04/20 02:59:42;;;;;;;;;;;;;;;8.85;71.49;100834.95;215989;1254;59695;-72
2023/04/20 03:05:01;;;;;;;;;;;;;;;8.86;71.54;100832.56;215832;1254;65621;-72
2023/04/20 03:10:03;;;;;;;;;;;;;;;8.85;71.65;100830.13;215958;1256;60110;-72
2023/04/20 03:15:14;;;;;;;;;;;;;;;8.83;71.69;100823.84;215882;1254;73801;-72
2023/04/20 03:20:29;;;;;;;;;;;;;;;8.76;71.67;100831.80;215909;1254;72037;-72
2023/04/20 03:25:23;;;;;;;;;;;;;;;8.70;71.70;100835.27;215897;1254;59664;-72
2023/04/20 03:30:30;;;;;;;;;;;;;;;8.65;72.07;100839.96;215808;1259;67024;-73
2023/04/20 03:35:30;;;;;;;;;;;;;;;8.59;72.06;100841.17;215823;1254;59740;-72
2023/04/20 03:40:23;;;;;;;;;;;;;;;8.56;72.27;100842.50;215929;1256;73390;-72
2023/04/20 03:45:16;;;;;;;;;;;;;;;8.53;72.22;100842.77;215879;1254;59610;-72
2023/04/20 03:50:09;;;;;;;;;;;;;;;8.52;72.42;100845.84;215834;1254;59623;-72
2023/04/20 03:55:03;;;;;;;;;;;;;;;8.53;72.36;100854.17;215939;1257;66295;-72
2023/04/20 03:59:56;;;;;;;;;;;;;;;8.56;72.16;100856.31;215969;1256;60600;-72
2023/04/20 04:04:50;;;;;;;;;;;;;;;8.60;72.11;100861.77;215955;1257;72284;-72
2023/04/20 04:09:47;;;;;;;;;;;;;;;8.65;72.11;100863.64;216012;1254;71702;-72
2023/04/20 04:14:40;;;;;;;;;;;;;;;8.70;72.09;100861.55;215905;1254;59809;-72
2023/04/20 04:19:34;;;;;;;;;;;;;;;8.77;72.03;100858.77;215951;1254;66533;-72
2023/04/20 04:24:27;;;;;;;;;;;;;;;8.84;72.10;100859.48;215827;1257;59683;-73
2023/04/20 04:29:25;;;;;;;;;;;;;;;8.93;71.85;100857.83;215805;1254;75547;-72
2023/04/20 04:34:19;;;;;;;;;;;;;;;9.07;71.86;100858.16;215731;1254;72993;-72
2023/04/20 04:39:16;;;;;;;;;;;;;;;9.22;71.78;100864.08;215808;1254;59722;-72
2023/04/20 04:44:17;;;;;;;;;;;;;;;9.38;71.57;100875.73;215816;1254;67555;-71
2023/04/20 04:49:10;;;;;;;;;;;;;;;9.52;71.27;100876.92;215872;1254;59728;-72
2023/04/20 04:54:05;;;;;;;;;;;;;;;9.69;71.24;100881.46;215912;1254;74014;-72
2023/04/20 04:58:58;;;;;;;;;;;;;;;9.93;71.01;100883.40;215921;1254;59671;-72
2023/04/20 05:03:50;;;;;;;;;;;;;;;10.21;70.53;100890.08;215903;1254;60090;-72
2023/04/20 05:08:43;;;;;;;;;;;;;;;10.53;70.31;100887.11;215933;1254;59676;-72
2023/04/20 05:13:36;;;;;;;;;;;;;;;10.78;69.98;100892.79;215807;1254;60310;-72
2023/04/20 05:18:29;;;;;;;;;;;;;;;10.85;69.85;100902.11;215835;1254;59694;-72
2023/04/20 05:23:22;;;;;;;;;;;;;;;10.82;69.75;100902.21;215676;1254;59737;-72
2023/04/20 05:28:15;;;;;;;;;;;;;;;10.89;69.40;100907.04;215721;1254;59654;-72
2023/04/20 05:33:07;;;;;;;;;;;;;;;10.89;69.34;100909.98;215648;1254;59901;-72
2023/04/20 05:38:02;;;;;;;;;;;;;;;10.89;69.24;100918.48;215709;1254;59750;-72
2023/04/20 05:42:55;;;;;;;;;;;;;;;10.95;69.18;100921.55;215677;1254;77089;-72
2023/04/20 05:47:57;;;;;;;;;;;;;;;11.13;68.99;100922.56;215696;1254;59779;-72
2023/04/20 05:52:50;;;;;;;;;;;;;;;11.36;68.64;100926.61;215784;1257;59632;-72
2023/04/20 05:57:43;;;;;;;;;;;;;;;11.48;68.28;100926.30;215718;1254;66196;-72
2023/04/20 06:02:36;;;;;;;;;;;;;;;11.68;68.03;100928.70;215645;1257;60216;-72
2023/04/20 06:07:29;;;;;;;;;;;;;;;11.91;67.68;100928.55;215822;1257;59751;-72
2023/04/20 06:12:22;;;;;;;;;;;;;;;12.22;67.36;100925.17;215734;1254;59782;-72
2023/04/20 06:17:18;;;;;;;;;;;;;;;12.61;66.71;100924.10;215717;1254;60081;-73
2023/04/20 06:22:11;;;;;;;;;;;;;;;13.10;66.06;100924.80;215736;1254;59753;-72
2023/04/20 06:27:04;;;;;;;;;;;;;;;13.47;65.32;100926.23;215676;1254;59670;-72
2023/04/20 06:31:57;;;;;;;;;;;;;;;13.61;64.77;100927.04;215764;1254;71699;-73
2023/04/20 06:36:49;;;;;;;;;;;;;;;13.55;64.36;100928.73;215868;1253;59711;-72
2023/04/20 06:41:42;;;;;;;;;;;;;;;13.65;63.89;100930.56;215953;1256;59740;-72
2023/04/20 06:46:36;;;;;;;;;;;;;;;14.39;62.70;100928.21;215749;1254;66159;-73
2023/04/20 06:51:30;;;;;;;;;;;;;;;15.31;61.63;100926.56;215783;1253;59728;-73
2023/04/20 06:56:23;;;;;;;;;;;;;;;16.22;60.42;100922.67;215722;1253;71844;-72
2023/04/20 07:01:16;;;;;;;;;;;;;;;17.52;58.64;100922.11;215737;1252;59745;-73
2023/04/20 07:06:10;;;;;;;;;;;;;;;18.89;55.79;100920.82;215886;1253;59729;-73
2023/04/20 07:11:02;;;;;;;;;;;;;;;19.49;54.57;100925.37;215785;1254;67116;-74
2023/04/20 07:15:55;;;;;;;;;;;;;;;20.57;53.22;100920.91;215842;1254;59666;-73
2023/04/20 07:20:48;;;;;;;;;;;;;;;21.18;51.28;100920.29;215880;1257;59671;-73
2023/04/20 07:25:41;;;;;;;;;;;;;;;20.58;51.56;100926.89;216157;1254;59657;-73
2023/04/20 07:30:34;;;;;;;;;;;;;;;21.09;50.88;100926.28;216130;1253;59704;-73
2023/04/20 07:35:26;;;;;;;;;;;;;;;23.32;48.21;100917.55;216001;1253;59715;-73
2023/04/20 07:40:19;;;;;;;;;;;;;;;25.69;45.30;100916.98;215845;1254;59767;-73
2023/04/20 07:45:12;;;;;;;;;;;;;;;25.59;44.55;100920.79;216023;1253;59663;-73
2023/04/20 07:50:06;;;;;;;;;;;;;;;25.20;43.36;100922.92;215921;1257;59723;-74
2023/04/20 07:54:59;;;;;;;;;;;;;;;25.10;42.78;100929.36;215925;1252;61888;-73
2023/04/20 07:59:52;;;;;;;;;;;;;;;26.61;40.76;100929.77;215995;1253;59691;-75
2023/04/20 08:04:45;;;;;;;;;;;;;;;27.64;39.62;100928.56;216055;1253;59660;-74
2023/04/20 08:09:38;;;;;;;;;;;;;;;28.39;38.42;100926.11;215885;1254;72460;-75
2023/04/20 08:14:32;;;;;;;;;;;;;;;27.72;38.54;100930.23;215807;1253;60472;-74
2023/04/20 08:19:25;;;;;;;;;;;;;;;27.18;38.02;100922.66;215888;1253;60449;-75
2023/04/20 08:24:21;;;;;;;;;;;;;;;28.94;35.88;100920.70;216056;1252;66117;-75
2023/04/20 08:29:14;;;;;;;;;;;;;;;29.62;34.33;100925.06;215968;1253;60409;-75
2023/04/20 08:34:07;;;;;;;;;;;;;;;28.96;33.00;100930.30;216148;1253;60665;-75
2023/04/20 08:39:13;;;;;;;;;;;;;;;28.45;33.25;100926.26;216116;1255;73492;-74
2023/04/20 08:44:07;;;;;;;;;;;;;;;27.21;33.69;100932.80;216213;1253;60409;-75
2023/04/20 08:49:01;;;;;;;;;;;;;;;26.31;34.37;100922.46;216100;1252;68264;-74
2023/04/20 08:53:55;;;;;;;;;;;;;;;26.30;34.02;100927.33;216080;1253;60463;-75
2023/04/20 08:58:48;;;;;;;;;;;;;;;25.11;33.07;100934.07;216106;1252;74488;-74
2023/04/20 09:03:57;;;;;;;;;;;;;;;24.38;33.49;100933.69;209416;1295;599551;-73
2023/04/20 09:08:50;;;;;;;;;;;;;;;24.14;33.65;100933.48;214323;1267;60915;-73
2023/04/20 09:13:43;;;;;;;;;;;;;;;25.01;33.27;100923.14;214224;1268;59132;-73
2023/04/20 09:18:36;;;;;;;;;;;;;;;26.08;32.85;100918.69;214396;1269;162022;-74
2023/04/20 09:23:29;;;;;;;;;;;;;;;27.37;30.95;100925.65;214492;1267;72942;-73
2023/04/20 09:28:22;;;;;;;;;;;;;;;27.57;30.42;100925.91;214490;1265;59236;-73
2023/04/20 09:33:15;;;;;;;;;;;;;;;27.52;30.03;100919.73;214487;1266;59269;-73
2023/04/20 09:38:11;;;;;;;;;;;;;;;27.85;29.03;100921.82;214488;1266;59252;-73
2023/04/20 09:43:07;;;;;;;;;;;;;;;26.60;29.27;100920.09;214726;1263;59334;-75
2023/04/20 09:48:00;;;;;;;;;;;;;;;26.49;29.31;100922.53;214746;1265;70840;-75
2023/04/20 09:52:54;;;;;;;;;;;;;;;28.05;28.71;100916.75;214791;1267;72380;-76
2023/04/20 09:57:48;;;;;;;;;;;;;;;28.62;27.82;100918.77;214759;1263;61349;-75
2023/04/20 10:02:42;;;;;;;;;;;;;;;30.24;26.77;100914.88;214779;1266;66749;-75
2023/04/20 10:07:36;;;;;;;;;;;;;;;28.46;26.85;100918.94;214751;1264;59720;-75
2023/04/20 10:12:28;;;;;;;;;;;;;;;26.63;27.72;100920.98;214717;1262;73387;-75
2023/04/20 10:17:29;;;;;;;;;;;;;;;28.70;26.47;100911.64;214734;1263;59629;-75
2023/04/20 10:22:28;;;;;;;;;;;;;;;30.28;24.98;100906.22;214715;1263;59630;-75
2023/04/20 10:27:21;;;;;;;;;;;;;;;31.08;25.13;100898.28;214697;1264;67444;-75
2023/04/20 10:32:27;;;;;;;;;;;;;;;32.52;24.28;100893.54;214703;1263;59984;-75
2023/04/20 10:37:21;;;;;;;;;;;;;;;32.73;22.69;100888.77;214757;1263;73729;-75
2023/04/20 10:42:14;;;;;;;;;;;;;;;31.35;23.03;100893.42;214610;1266;73456;-75
2023/04/20 10:47:10;;;;;;;;;;;;;;;29.59;24.74;100895.25;214734;1264;59679;-75
2023/04/20 10:52:03;;;;;;;;;;;;;;;27.72;25.20;100898.27;214720;1262;67201;-74
2023/04/20 10:56:55;;;;;;;;;;;;;;;28.39;24.36;100891.49;214695;1266;59733;-75
2023/04/20 11:01:49;;;;;;;;;;;;;;;26.43;24.94;100891.87;214683;1266;60098;-75
2023/04/20 11:06:44;;;;;;;;;;;;;;;25.54;25.69;100896.30;214693;1263;72188;-74
2023/04/20 11:11:37;;;;;;;;;;;;;;;24.34;26.19;100892.88;214846;1266;59646;-75
2023/04/20 11:16:29;;;;;;;;;;;;;;;24.18;26.61;100892.98;214665;1263;59689;-75
2023/04/20 11:21:41;;;;;;;;;;;;;;;24.33;26.75;100886.35;214675;1264;59679;-75
2023/04/20 11:26:34;;;;;;;;;;;;;;;25.38;26.49;100883.86;214667;1266;73823;-74
2023/04/20 11:31:28;;;;;;;;;;;;;;;24.23;27.03;100884.99;214663;1266;72633;-74
2023/04/20 11:36:22;;;;;;;;;;;;;;;25.10;26.77;100879.32;214640;1264;59601;-75
2023/04/20 11:41:15;;;;;;;;;;;;;;;25.64;26.84;100878.33;214707;1263;67128;-75
2023/04/20 11:46:19;;;;;;;;;;;;;;;25.78;26.28;100872.77;214681;1264;59655;-74
2023/04/20 11:51:13;;;;;;;;;;;;;;;25.47;26.90;100868.97;214606;1266;72849;-75
2023/04/20 11:56:06;;;;;;;;;;;;;;;25.47;26.62;100862.02;214680;1263;72979;-74
2023/04/20 12:00:59;;;;;;;;;;;;;;;25.54;26.56;100860.50;214685;1264;59753;-75
2023/04/20 12:05:52;;;;;;;;;;;;;;;24.94;26.05;100854.62;214650;1264;66803;-75
2023/04/20 12:10:45;;;;;;;;;;;;;;;23.37;26.49;100863.23;214640;1264;59648;-74
2023/04/20 12:15:38;;;;;;;;;;;;;;;22.44;27.63;100867.92;214688;1264;73796;-74
2023/04/20 12:20:31;;;;;;;;;;;;;;;22.04;28.08;100870.66;214680;1266;59699;-74
2023/04/20 12:25:24;;;;;;;;;;;;;;;21.99;28.47;100861.98;214707;1267;59617;-74
2023/04/20 12:30:17;;;;;;;;;;;;;;;22.83;28.54;100846.75;214732;1266;59656;-73
2023/04/20 12:35:10;;;;;;;;;;;;;;;23.63;27.47;100841.48;214628;1264;59784;-74
2023/04/20 12:40:05;;;;;;;;;;;;;;;22.89;26.91;100847.82;214646;1263;59679;-74
2023/04/20 12:44:58;;;;;;;;;;;;;;;21.95;27.24;100849.37;214629;1263;70772;-74
2023/04/20 12:49:51;;;;;;;;;;;;;;;21.34;28.02;100850.95;214650;1263;60165;-73
2023/04/20 12:54:43;;;;;;;;;;;;;;;21.21;28.47;100845.66;214680;1264;62980;-74
2023/04/20 12:59:36;;;;;;;;;;;;;;;22.04;29.03;100829.52;214671;1264;60121;-74
2023/04/20 13:04:29;;;;;;;;;;;;;;;22.64;27.84;100824.77;215062;1261;59661;-74
2023/04/20 13:09:25;;;;;;;;;;;;;;;23.23;27.01;100821.98;215071;1257;59666;-74
2023/04/20 13:14:18;;;;;;;;;;;;;;;22.70;26.78;100820.13;215069;1263;59761;-73
2023/04/20 13:19:12;;;;;;;;;;;;;;;21.91;27.16;100824.59;215095;1260;68012;-73
2023/04/20 13:24:05;;;;;;;;;;;;;;;21.27;27.67;100823.65;215110;1261;59739;-74
2023/04/20 13:28:57;;;;;;;;;;;;;;;21.14;28.25;100821.16;215121;1260;59666;-73
2023/04/20 13:33:53;;;;;;;;;;;;;;;21.86;27.73;100814.48;215074;1261;60079;-74
2023/04/20 13:38:47;;;;;;;;;;;;;;;22.43;27.46;100805.23;215149;1260;60302;-74
2023/04/20 13:43:40;;;;;;;;;;;;;;;22.95;27.26;100803.98;215162;1262;67682;-74
2023/04/20 13:48:33;;;;;;;;;;;;;;;23.10;26.92;100804.89;215149;1260;59656;-74
2023/04/20 13:53:26;;;;;;;;;;;;;;;22.31;26.64;100810.21;215082;1260;59660;-74
2023/04/20 13:58:19;;;;;;;;;;;;;;;22.30;26.83;100814.67;215265;1257;59744;-73
2023/04/20 14:03:12;;;;;;;;;;;;;;;22.49;26.81;100810.91;215374;1257;60023;-73
2023/04/20 14:08:06;;;;;;;;;;;;;;;22.22;26.87;100817.36;215370;1256;67282;-74
2023/04/20 14:13:00;;;;;;;;;;;;;;;21.68;27.14;100817.48;215173;1257;59670;-73
2023/04/20 14:17:53;;;;;;;;;;;;;;;21.32;27.43;100818.75;215305;1257;73560;-73
2023/04/20 14:22:46;;;;;;;;;;;;;;;21.47;27.35;100817.33;215245;1257;59644;-74
2023/04/20 14:27:39;;;;;;;;;;;;;;;21.72;27.56;100808.54;215423;1256;59746;-74
2023/04/20 14:32:31;;;;;;;;;;;;;;;22.38;27.29;100807.17;215434;1257;59828;-74
2023/04/20 14:37:26;;;;;;;;;;;;;;;22.23;27.06;100811.50;215202;1257;59659;-74
2023/04/20 14:42:19;;;;;;;;;;;;;;;21.62;27.63;100814.45;215368;1257;72915;-75
2023/04/20 14:47:11;;;;;;;;;;;;;;;21.09;28.08;100812.27;215236;1257;60058;-75
2023/04/20 14:52:04;;;;;;;;;;;;;;;20.75;28.21;100813.28;215275;1260;59723;-74
2023/04/20 14:56:57;;;;;;;;;;;;;;;20.54;28.27;100809.52;215208;1257;59618;-75
2023/04/20 15:01:49;;;;;;;;;;;;;;;20.60;28.59;100806.23;215279;1256;59657;-74
2023/04/20 15:06:54;;;;;;;;;;;;;;;21.17;28.48;100803.11;215334;1256;72097;-75
2023/04/20 15:11:46;;;;;;;;;;;;;;;21.73;28.21;100798.10;215447;1257;59660;-75
2023/04/20 15:16:39;;;;;;;;;;;;;;;21.87;27.64;100798.77;215339;1257;59673;-75
2023/04/20 15:21:32;;;;;;;;;;;;;;;21.42;27.36;100806.52;215233;1257;59650;-75
2023/04/20 15:26:25;;;;;;;;;;;;;;;20.87;27.80;100808.59;215352;1257;59631;-75
2023/04/20 15:31:18;;;;;;;;;;;;;;;20.55;28.05;100807.04;215285;1257;59768;-75
2023/04/20 15:36:11;;;;;;;;;;;;;;;20.45;28.35;100809.55;215527;1256;59749;-74
2023/04/20 15:41:04;;;;;;;;;;;;;;;20.64;28.42;100806.84;215409;1257;60813;-74
2023/04/20 15:45:56;;;;;;;;;;;;;;;20.63;28.19;100808.99;215505;1257;59723;-74
2023/04/20 15:50:52;;;;;;;;;;;;;;;20.29;28.40;100810.59;215408;1257;59656;-75
2023/04/20 15:55:45;;;;;;;;;;;;;;;20.18;28.33;100808.20;215428;1256;72696;-75
2023/04/20 16:00:40;;;;;;;;;;;;;;;19.95;28.71;100810.44;215278;1257;71132;-75
2023/04/20 16:05:33;;;;;;;;;;;;;;;19.62;28.99;100813.34;215277;1257;60093;-75
2023/04/20 16:10:26;;;;;;;;;;;;;;;19.29;29.13;100817.45;215268;1257;59654;-75
2023/04/20 16:15:20;;;;;;;;;;;;;;;19.00;29.45;100817.74;215309;1257;59442;-74
2023/04/20 16:20:13;;;;;;;;;;;;;;;18.82;29.57;100815.55;215287;1257;72666;-74
2023/04/20 16:25:06;;;;;;;;;;;;;;;18.90;29.68;100820.02;215311;1256;72148;-75
2023/04/20 16:29:59;;;;;;;;;;;;;;;18.97;29.85;100819.05;215431;1256;59743;-74
2023/04/20 16:34:52;;;;;;;;;;;;;;;18.98;29.90;100820.41;215476;1257;66288;-75
2023/04/20 16:39:45;;;;;;;;;;;;;;;18.93;30.17;100819.79;215207;1257;59768;-74
2023/04/20 16:44:37;;;;;;;;;;;;;;;18.81;30.38;100821.02;215331;1257;59663;-74
2023/04/20 16:49:33;;;;;;;;;;;;;;;18.65;30.53;100824.08;215288;1259;73659;-74
2023/04/20 16:54:26;;;;;;;;;;;;;;;18.50;30.88;100833.58;215340;1257;59644;-74
2023/04/20 16:59:18;;;;;;;;;;;;;;;18.32;31.10;100838.91;215337;1256;59714;-74
2023/04/20 17:04:11;;;;;;;;;;;;;;;18.13;31.41;100842.13;215319;1256;59656;-74
2023/04/20 17:09:05;;;;;;;;;;;;;;;17.92;31.53;100846.05;215298;1257;59663;-74
2023/04/20 17:13:58;;;;;;;;;;;;;;;17.71;32.08;100849.57;215548;1256;70840;-74
2023/04/20 17:18:52;;;;;;;;;;;;;;;17.43;33.19;100855.29;215199;1257;60450;-74
2023/04/20 17:23:46;;;;;;;;;;;;;;;17.12;33.74;100859.21;215308;1257;65854;-74
2023/04/20 17:28:39;;;;;;;;;;;;;;;16.80;34.55;100858.56;215230;1259;60552;-74
2023/04/20 17:33:31;;;;;;;;;;;;;;;16.49;35.55;100861.52;215306;1256;60482;-74
2023/04/20 17:38:24;;;;;;;;;;;;;;;16.19;35.94;100865.49;215135;1256;60729;-74
2023/04/20 17:43:17;;;;;;;;;;;;;;;15.90;36.69;100875.03;215152;1257;60438;-74
2023/04/20 17:48:10;;;;;;;;;;;;;;;15.58;37.53;100877.49;214964;1256;60463;-73
2023/04/20 17:53:05;;;;;;;;;;;;;;;15.25;38.07;100880.30;215108;1257;60446;-74
2023/04/20 17:57:58;;;;;;;;;;;;;;;14.97;38.85;100878.54;215159;1257;74186;-73
2023/04/20 18:02:51;;;;;;;;;;;;;;;14.72;39.21;100884.07;215363;1258;60466;-74
2023/04/20 18:07:44;;;;;;;;;;;;;;;14.49;39.57;100886.93;215339;1256;60609;-73
2023/04/20 18:12:37;;;;;;;;;;;;;;;14.28;40.03;100884.58;215211;1256;67182;-73
2023/04/20 18:17:33;;;;;;;;;;;;;;;14.06;40.69;100890.23;215288;1256;60544;-74
2023/04/20 18:22:26;;;;;;;;;;;;;;;13.84;41.02;100889.06;215446;1256;60474;-74
2023/04/20 18:27:19;;;;;;;;;;;;;;;13.66;41.70;100894.85;215217;1256;60435;-74
2023/04/20 18:32:15;;;;;;;;;;;;;;;13.50;41.92;100896.65;215339;1259;63675;-73
2023/04/20 18:37:08;;;;;;;;;;;;;;;13.32;42.15;100902.77;215174;1256;67278;-74
2023/04/20 18:42:01;;;;;;;;;;;;;;;13.15;42.66;100904.16;215191;1256;60438;-73
2023/04/20 18:46:54;;;;;;;;;;;;;;;12.98;43.10;100904.52;215230;1257;62523;-73
2023/04/20 18:51:47;;;;;;;;;;;;;;;12.83;43.53;100903.66;215172;1256;60550;-74
2023/04/20 18:56:40;;;;;;;;;;;;;;;12.67;43.73;100911.48;215137;1256;60530;-73
2023/04/20 19:01:34;;;;;;;;;;;;;;;12.52;44.15;100908.52;215226;1256;60505;-74
2023/04/20 19:06:26;;;;;;;;;;;;;;;12.39;44.54;100918.10;215630;1254;60492;-73
2023/04/20 19:11:19;;;;;;;;;;;;;;;12.25;45.14;100915.49;215717;1254;60457;-73
2023/04/20 19:16:12;;;;;;;;;;;;;;;12.10;45.36;100919.45;215665;1254;60541;-73
2023/04/20 19:21:05;;;;;;;;;;;;;;;11.97;45.46;100925.69;215815;1253;60543;-73
2023/04/20 19:25:58;;;;;;;;;;;;;;;11.83;45.97;100931.52;215771;1254;60558;-74
2023/04/20 19:30:50;;;;;;;;;;;;;;;11.70;46.33;100928.05;215749;1253;60537;-74
2023/04/20 19:35:49;;;;;;;;;;;;;;;11.60;46.86;100931.69;215799;1253;60433;-74
2023/04/20 19:40:42;;;;;;;;;;;;;;;11.48;47.29;100930.98;215661;1254;72961;-74
2023/04/20 19:45:35;;;;;;;;;;;;;;;11.32;47.53;100931.58;215834;1253;60475;-74
2023/04/20 19:50:28;;;;;;;;;;;;;;;11.21;48.03;100930.17;215881;1253;60543;-74
2023/04/20 19:55:21;;;;;;;;;;;;;;;11.12;48.36;100930.19;215713;1253;60466;-75
2023/04/20 20:00:14;;;;;;;;;;;;;;;11.04;48.68;100936.11;215692;1253;60558;-74
2023/04/20 20:05:08;;;;;;;;;;;;;;;10.95;49.00;100933.88;215643;1253;73122;-74
2023/04/20 20:10:01;;;;;;;;;;;;;;;10.85;49.17;100932.46;215688;1253;60463;-74
2023/04/20 20:14:54;;;;;;;;;;;;;;;10.76;49.42;100934.02;215641;1253;67240;-74
2023/04/20 20:19:48;;;;;;;;;;;;;;;10.70;49.82;100937.88;215667;1254;59277;-74
2023/04/20 20:24:43;;;;;;;;;;;;;;;10.60;49.80;100938.20;215736;1254;73892;-74
2023/04/20 20:29:36;;;;;;;;;;;;;;;10.52;49.94;100938.91;215782;1253;73643;-74
2023/04/20 20:34:29;;;;;;;;;;;;;;;10.44;50.21;100938.39;215815;1253;60437;-74
2023/04/20 20:39:22;;;;;;;;;;;;;;;10.38;50.46;100936.37;215826;1253;60482;-74
2023/04/20 20:44:16;;;;;;;;;;;;;;;10.31;50.48;100941.39;215850;1254;60470;-74
2023/04/20 20:49:09;;;;;;;;;;;;;;;10.22;50.99;100940.66;215896;1256;73766;-73
2023/04/20 20:54:02;;;;;;;;;;;;;;;10.18;51.11;100940.06;215763;1254;60600;-74
2023/04/20 20:58:55;;;;;;;;;;;;;;;10.17;51.27;100941.93;215715;1254;60454;-74
2023/04/20 21:03:48;;;;;;;;;;;;;;;10.16;51.35;100940.36;215664;1253;60447;-74
2023/04/20 21:08:42;;;;;;;;;;;;;;;10.15;51.51;100945.00;215811;1254;60450;-74
2023/04/20 21:13:34;;;;;;;;;;;;;;;10.13;51.48;100947.75;215907;1253;73763;-74
2023/04/20 21:18:27;;;;;;;;;;;;;;;10.14;51.21;100941.88;215674;1253;148044;-74
2023/04/20 21:23:20;;;;;;;;;;;;;;;10.18;51.36;100945.60;215828;1254;60435;-74
2023/04/20 21:28:13;;;;;;;;;;;;;;;10.20;51.05;100942.86;215706;1253;60505;-74
2023/04/20 21:33:06;;;;;;;;;;;;;;;10.19;51.42;100940.59;215782;1253;61010;-73
2023/04/20 21:37:59;;;;;;;;;;;;;;;10.15;51.05;100939.47;215706;1254;60633;-73
2023/04/20 21:42:52;;;;;;;;;;;;;;;10.20;50.42;100938.02;215655;1257;60462;-74
2023/04/20 21:47:47;;;;;;;;;;;;;;;10.31;49.94;100942.44;215749;1253;60408;-73
2023/04/20 21:52:41;;;;;;;;;;;;;;;10.39;49.81;100940.52;215711;1254;60479;-74
2023/04/20 21:57:34;;;;;;;;;;;;;;;10.45;49.60;100932.52;215656;1254;60547;-74
2023/04/20 22:02:27;;;;;;;;;;;;;;;10.46;49.64;100931.31;215838;1253;60560;-74
2023/04/20 22:07:22;;;;;;;;;;;;;;;10.47;49.52;100931.34;215818;1254;73645;-73
2023/04/20 22:12:15;;;;;;;;;;;;;;;10.46;49.41;100937.05;215690;1256;60538;-74
2023/04/20 22:17:13;;;;;;;;;;;;;;;10.47;49.38;100941.05;215809;1253;65686;-74
2023/04/20 22:22:06;;;;;;;;;;;;;;;10.44;49.41;100941.00;215852;1256;60550;-73
2023/04/20 22:27:01;;;;;;;;;;;;;;;10.45;49.43;100939.45;215785;1256;60505;-74
2023/04/20 22:31:54;;;;;;;;;;;;;;;10.45;49.51;100942.23;215764;1256;71563;-74
2023/04/20 22:36:47;;;;;;;;;;;;;;;10.44;49.43;100943.94;215877;1253;60431;-73
2023/04/20 22:41:40;;;;;;;;;;;;;;;10.40;49.49;100945.08;215772;1256;68279;-74
2023/04/20 22:46:32;;;;;;;;;;;;;;;10.39;49.54;100949.20;215866;1256;60479;-73
2023/04/20 22:51:27;;;;;;;;;;;;;;;10.37;49.68;100947.42;215915;1254;60476;-74
2023/04/20 22:56:20;;;;;;;;;;;;;;;10.35;49.64;100944.26;215873;1254;72652;-74
2023/04/20 23:01:13;;;;;;;;;;;;;;;10.34;49.65;100945.96;215890;1253;60445;-74
2023/04/20 23:06:06;;;;;;;;;;;;;;;10.30;49.87;100940.33;215797;1255;60464;-74
2023/04/20 23:10:58;;;;;;;;;;;;;;;10.24;49.90;100939.50;215846;1254;60477;-73
2023/04/20 23:15:51;;;;;;;;;;;;;;;10.19;50.11;100939.04;215973;1253;60456;-73
2023/04/20 23:20:44;;;;;;;;;;;;;;;10.13;50.11;100940.47;216058;1253;60457;-74
2023/04/20 23:25:37;;;;;;;;;;;;;;;10.03;50.58;100941.63;215847;1256;60517;-74
2023/04/20 23:30:30;;;;;;;;;;;;;;;9.90;50.90;100943.40;215840;1254;60425;-74
2023/04/20 23:35:23;;;;;;;;;;;;;;;9.80;51.01;100939.55;215957;1254;60473;-74
2023/04/20 23:40:16;;;;;;;;;;;;;;;9.72;51.24;100939.19;215836;1253;60547;-73
2023/04/20 23:45:09;;;;;;;;;;;;;;;9.61;51.52;100937.17;215861;1255;60573;-74
2023/04/20 23:50:02;;;;;;;;;;;;;;;9.51;51.85;100939.55;216011;1255;60659;-73
2023/04/20 23:54:54;;;;;;;;;;;;;;;9.47;51.71;100937.88;215872;1253;60553;-74
2023/04/20 23:59:47;;;;;;;;;;;;;;;9.43;51.87;100938.98;215881;1256;60434;-73
